Airfield :











YOU CAN JOIN US ON...

 
LOGIN :

Register | Disclaimer

   EN    FR    IT 

 









Legend :    VFR   Marginal VFR   IFR   Intensive IFR   Very Intensive IFR
Visi :
Ceiling :
>= 8 km
>= 3000ft
5 to 8 km
1000 to 3000 ft
1500m to 5 km
500 to 1000 ft
800 to 1500m
200 to 500 ft
< 800m
< 200 ft
Symbols :   Thunderstorms  Fog  Heavy snow  Heavy precipitations  Wind > 20 kt







- Airport Elevation : 1723 ft
- IATA code : KCM


LTCN - Kahramanmaras

CURRENT METAR :
  • 230450Z VRB02KT CAVOK 26/17 Q1005 NOSIG

EXPIRED METARs :
  • 230350Z 09003KT 050V120 CAVOK 24/18 Q1004 NOSIG
  • 230250Z VRB02KT CAVOK 21/17 Q1004 NOSIG

TAF TAF LTCN
Valid from the 23 at 06:00 until the 23 at 15:00 UTC


230440Z 2306/2315 VRB02KT CAVOK
BECMG 2308/2310 29012KT
TEMPO 2310/2314 29017G30KT
No reported NOTAMs for that airfield.



MET'MAP, your aeronautical weather chart ! - Copyright ORBIFLY December 2007 - Disclaimer

ORBIFLY MET'MAP TEAM :

Programming & Development : Alexandra Zaïnal
Concept & Development : Baudouin d'Aumeries
Co-Development & Prog : Marc-Olivier Méhu
Technical & hardware support : Manuel Goepfert

Contact : metmap@orbifly.com




SOURCES & CREDITS :

   NOAA       Earth
Advisory